sensor_id;sensor_type;location;lat;lon;timestamp;pressure;altitude;pressure_sealevel;temperature;humidity
12624;BME280;6377;42.836;23.998;2022-12-08T11:47:16;95323.81;;;11.11;100.00
12624;BME280;6377;42.836;23.998;2022-12-08T11:49:48;95382.16;;;11.45;100.00
12624;BME280;6377;42.836;23.998;2022-12-08T11:52:25;95289.09;;;10.99;100.00
12624;BME280;6377;42.836;23.998;2022-12-08T11:55:20;95416.00;;;11.92;100.00
12624;BME280;6377;42.836;23.998;2022-12-08T12:04:31;95377.84;;;11.65;100.00
12624;BME280;6377;42.836;23.998;2022-12-08T12:12:08;95363.34;;;11.83;100.00
12624;BME280;6377;42.836;23.998;2022-12-08T12:24:19;95284.00;;;11.47;100.00
12624;BME280;6377;42.836;23.998;2022-12-08T12:26:54;95316.81;;;11.73;100.00
12624;BME280;6377;42.836;23.998;2022-12-08T12:34:48;95336.97;;;11.74;100.00
12624;BME280;6377;42.836;23.998;2022-12-08T12:40:36;95353.66;;;11.96;100.00
12624;BME280;6377;42.836;23.998;2022-12-08T12:43:23;95365.34;;;12.08;100.00
12624;BME280;6377;42.836;23.998;2022-12-08T13:00:21;95364.22;;;11.68;100.00
12624;BME280;6377;42.836;23.998;2022-12-08T15:14:54;95392.38;;;9.30;100.00
12624;BME280;6377;42.836;23.998;2022-12-08T15:17:31;95354.66;;;8.99;100.00
12624;BME280;6377;42.836;23.998;2022-12-08T15:20:00;95393.59;;;8.97;100.00
12624;BME280;6377;42.836;23.998;2022-12-08T15:22:28;95345.47;;;8.72;100.00
12624;BME280;6377;42.836;23.998;2022-12-08T15:25:19;95316.22;;;8.36;100.00
12624;BME280;6377;42.836;23.998;2022-12-08T15:27:50;95373.41;;;8.81;100.00
12624;BME280;6377;42.836;23.998;2022-12-08T15:33:03;95354.16;;;8.50;100.00
12624;BME280;6377;42.836;23.998;2022-12-08T15:35:31;95367.31;;;8.58;100.00
12624;BME280;6377;42.836;23.998;2022-12-08T15:37:58;95349.38;;;8.54;100.00
12624;BME280;6377;42.836;23.998;2022-12-08T15:40:25;95348.84;;;8.58;100.00
12624;BME280;6377;42.836;23.998;2022-12-08T15:42:52;95384.50;;;8.77;100.00
12624;BME280;6377;42.836;23.998;2022-12-08T15:45:25;95367.31;;;8.58;100.00
12624;BME280;6377;42.836;23.998;2022-12-08T15:47:53;95365.19;;;8.54;100.00
12624;BME280;6377;42.836;23.998;2022-12-08T15:50:23;95358.28;;;8.53;100.00
12624;BME280;6377;42.836;23.998;2022-12-08T15:52:50;95304.41;;;8.16;100.00
12624;BME280;6377;42.836;23.998;2022-12-08T15:55:18;95348.97;;;8.34;100.00
12624;BME280;6377;42.836;23.998;2022-12-08T15:57:47;95325.13;;;8.19;100.00
12624;BME280;6377;42.836;23.998;2022-12-08T16:00:25;95335.16;;;8.32;100.00
12624;BME280;6377;42.836;23.998;2022-12-08T16:02:53;95347.38;;;8.17;100.00
12624;BME280;6377;42.836;23.998;2022-12-08T16:05:23;95369.75;;;8.29;100.00
12624;BME280;6377;42.836;23.998;2022-12-08T16:07:50;95336.50;;;8.20;100.00
12624;BME280;6377;42.836;23.998;2022-12-08T16:10:20;95345.75;;;8.16;100.00
12624;BME280;6377;42.836;23.998;2022-12-08T16:12:48;95362.03;;;8.19;100.00
12624;BME280;6377;42.836;23.998;2022-12-08T16:15:34;95341.25;;;7.85;100.00
12624;BME280;6377;42.836;23.998;2022-12-08T16:18:02;95394.69;;;8.02;100.00
12624;BME280;6377;42.836;23.998;2022-12-08T16:20:31;95360.19;;;7.81;100.00
12624;BME280;6377;42.836;23.998;2022-12-08T16:22:59;95357.91;;;7.70;100.00
12624;BME280;6377;42.836;23.998;2022-12-08T16:30:46;95293.25;;;7.12;100.00
12624;BME280;6377;42.836;23.998;2022-12-08T16:33:14;95355.50;;;7.44;100.00
12624;BME280;6377;42.836;23.998;2022-12-08T16:35:42;95366.34;;;7.57;100.00
12624;BME280;6377;42.836;23.998;2022-12-08T16:38:12;95385.72;;;7.64;100.00
12624;BME280;6377;42.836;23.998;2022-12-08T16:40:43;95383.59;;;7.60;100.00
12624;BME280;6377;42.836;23.998;2022-12-08T16:43:24;95374.09;;;7.43;100.00
12624;BME280;6377;42.836;23.998;2022-12-08T16:48:39;95393.47;;;7.50;100.00
12624;BME280;6377;42.836;23.998;2022-12-08T16:51:14;95394.78;;;7.38;100.00
12624;BME280;6377;42.836;23.998;2022-12-08T16:56:34;95364.06;;;7.06;100.00
12624;BME280;6377;42.836;23.998;2022-12-08T16:59:02;95414.53;;;7.50;100.00
12624;BME280;6377;42.836;23.998;2022-12-08T17:01:29;95406.97;;;7.39;100.00
12624;BME280;6377;42.836;23.998;2022-12-08T17:03:57;95389.69;;;7.20;100.00
12624;BME280;6377;42.836;23.998;2022-12-08T17:43:19;95367.19;;;6.77;100.00
12624;BME280;6377;42.836;23.998;2022-12-08T19:50:41;95430.31;;;6.43;100.00
12624;BME280;6377;42.836;23.998;2022-12-08T19:53:11;95401.25;;;6.37;100.00
12624;BME280;6377;42.836;23.998;2022-12-08T19:55:40;95438.59;;;6.64;100.00
12624;BME280;6377;42.836;23.998;2022-12-08T19:58:08;95463.09;;;6.81;100.00
12624;BME280;6377;42.836;23.998;2022-12-08T20:00:37;95411.56;;;6.30;100.00
12624;BME280;6377;42.836;23.998;2022-12-08T23:23:24;95366.25;;;8.98;100.00
12624;BME280;6377;42.836;23.998;2022-12-08T23:25:51;95406.75;;;9.65;100.00
12624;BME280;6377;42.836;23.998;2022-12-08T23:28:19;95408.09;;;10.28;100.00
12624;BME280;6377;42.836;23.998;2022-12-08T23:30:47;95401.00;;;10.43;100.00
12624;BME280;6377;42.836;23.998;2022-12-08T23:33:14;95450.97;;;11.03;100.00
12624;BME280;6377;42.836;23.998;2022-12-08T23:35:42;95406.91;;;10.95;100.00
12624;BME280;6377;42.836;23.998;2022-12-08T23:38:10;95423.44;;;11.18;100.00
12624;BME280;6377;42.836;23.998;2022-12-08T23:40:39;95405.25;;;11.09;100.00
12624;BME280;6377;42.836;23.998;2022-12-08T23:43:07;95378.38;;;10.91;100.00
12624;BME280;6377;42.836;23.998;2022-12-08T23:45:34;95418.91;;;11.34;100.00
12624;BME280;6377;42.836;23.998;2022-12-08T23:48:02;95400.59;;;11.32;100.00
12624;BME280;6377;42.836;23.998;2022-12-08T23:50:29;95437.38;;;11.48;100.00
12624;BME280;6377;42.836;23.998;2022-12-08T23:52:57;95445.28;;;11.63;100.00
12624;BME280;6377;42.836;23.998;2022-12-08T23:55:24;95442.88;;;11.68;100.00
12624;BME280;6377;42.836;23.998;2022-12-08T23:57:53;95442.16;;;11.74;100.00
